createdAt,value
2018-09-02T00:01:35.631Z,14.80
2018-09-02T00:04:04.158Z,14.80
2018-09-02T00:06:32.634Z,14.80
2018-09-02T00:09:01.082Z,14.80
2018-09-02T00:11:29.570Z,14.80
2018-09-02T00:13:58.001Z,14.80
2018-09-02T00:16:26.453Z,14.80
2018-09-02T00:18:54.942Z,14.80
2018-09-02T00:21:23.743Z,14.70
2018-09-02T00:23:52.286Z,14.70
2018-09-02T00:26:20.784Z,14.60
2018-09-02T00:28:49.222Z,14.60
2018-09-02T00:31:17.717Z,14.50
2018-09-02T00:33:46.253Z,14.40
2018-09-02T00:36:14.692Z,14.30
2018-09-02T00:38:43.127Z,14.30
2018-09-02T00:41:11.654Z,14.30
2018-09-02T00:43:40.142Z,14.20
2018-09-02T00:46:08.633Z,14.20
2018-09-02T00:48:37.190Z,14.10
2018-09-02T00:51:05.746Z,14.00
2018-09-02T00:53:34.381Z,13.90
2018-09-02T00:56:02.919Z,13.90
2018-09-02T00:58:31.354Z,13.90
2018-09-02T01:00:59.818Z,13.80
2018-09-02T01:03:28.341Z,13.80
2018-09-02T01:05:56.859Z,13.70
2018-09-02T01:08:25.486Z,13.70
2018-09-02T01:10:54.070Z,13.60
2018-09-02T01:13:22.628Z,13.70
2018-09-02T01:15:51.146Z,13.60
2018-09-02T01:18:19.690Z,13.60
2018-09-02T01:20:48.187Z,13.50
2018-09-02T01:23:16.602Z,13.50
2018-09-02T01:25:45.114Z,13.50
2018-09-02T01:28:13.566Z,13.40
2018-09-02T01:30:42.002Z,13.40
2018-09-02T01:33:10.581Z,13.40
2018-09-02T01:35:38.999Z,13.30
2018-09-02T01:38:07.450Z,13.30
2018-09-02T01:40:36.225Z,13.30
2018-09-02T01:43:05.346Z,13.20
2018-09-02T01:45:33.993Z,13.20
2018-09-02T01:48:02.883Z,13.20
2018-09-02T01:50:31.350Z,13.20
2018-09-02T01:52:59.849Z,13.20
2018-09-02T01:55:28.382Z,13.20
2018-09-02T01:57:56.822Z,13.10
2018-09-02T02:00:25.274Z,13.10
2018-09-02T02:02:53.770Z,13.00
2018-09-02T02:05:22.277Z,13.00
2018-09-02T02:07:50.795Z,13.00
2018-09-02T02:10:19.366Z,13.00
2018-09-02T02:12:47.822Z,13.00
2018-09-02T02:15:16.278Z,13.00
2018-09-02T02:17:44.777Z,13.00
2018-09-02T02:20:13.254Z,13.00
2018-09-02T02:22:41.723Z,13.00
2018-09-02T02:25:10.235Z,13.00
2018-09-02T02:27:38.710Z,12.90
2018-09-02T02:30:07.440Z,12.90
2018-09-02T02:32:36.082Z,12.90
2018-09-02T02:35:04.602Z,12.90
2018-09-02T02:37:33.070Z,12.80
2018-09-02T02:40:01.590Z,12.80
2018-09-02T02:42:30.045Z,12.80
2018-09-02T02:44:58.534Z,12.80
2018-09-02T02:47:27.003Z,12.80
2018-09-02T02:49:55.458Z,12.80
2018-09-02T02:52:28.212Z,12.80
2018-09-02T02:54:56.683Z,12.70
2018-09-02T02:57:25.125Z,12.70
2018-09-02T02:59:53.588Z,12.70
2018-09-02T03:02:22.046Z,12.60
2018-09-02T03:04:50.491Z,12.60
2018-09-02T03:07:18.983Z,12.50
2018-09-02T03:09:47.435Z,12.50
2018-09-02T03:12:15.927Z,12.50
2018-09-02T03:14:44.410Z,12.50
2018-09-02T03:17:12.854Z,12.50
2018-09-02T03:19:41.312Z,12.50
2018-09-02T03:22:09.786Z,12.50
2018-09-02T03:24:38.235Z,12.50
2018-09-02T03:27:06.698Z,12.50
2018-09-02T03:29:35.174Z,12.50
2018-09-02T03:32:03.624Z,12.50
2018-09-02T03:34:32.063Z,12.50
2018-09-02T03:37:00.541Z,12.50
2018-09-02T03:39:29.146Z,12.50
2018-09-02T03:41:57.582Z,12.50
2018-09-02T03:44:26.134Z,12.50
2018-09-02T03:46:54.581Z,12.60
2018-09-02T03:49:23.013Z,12.60
2018-09-02T03:51:51.550Z,12.70
2018-09-02T03:54:19.989Z,12.80
2018-09-02T03:56:48.440Z,12.80
2018-09-02T03:59:16.918Z,12.80
2018-09-02T04:01:45.378Z,12.90
2018-09-02T04:04:13.822Z,12.90
2018-09-02T04:06:42.324Z,13.00
2018-09-02T04:09:11.930Z,13.00
2018-09-02T04:11:40.812Z,13.10
2018-09-02T04:14:09.330Z,13.10
2018-09-02T04:16:37.822Z,13.10
2018-09-02T04:19:06.354Z,13.10
2018-09-02T04:21:34.855Z,13.10
2018-09-02T04:24:03.495Z,13.10
2018-09-02T04:26:31.930Z,13.00
2018-09-02T04:29:00.492Z,13.00
2018-09-02T04:31:28.940Z,13.00
2018-09-02T04:33:57.383Z,13.00
2018-09-02T04:36:25.875Z,13.00
2018-09-02T04:38:54.342Z,13.00
2018-09-02T04:41:22.802Z,13.00
2018-09-02T04:43:51.282Z,13.00
2018-09-02T04:46:19.750Z,13.10
2018-09-02T04:48:48.176Z,13.10
2018-09-02T04:51:16.683Z,13.10
2018-09-02T04:53:45.134Z,13.20
2018-09-02T04:56:13.574Z,13.20
2018-09-02T04:58:42.041Z,13.30
2018-09-02T05:01:10.486Z,13.40
2018-09-02T05:03:38.937Z,13.50
2018-09-02T05:06:07.454Z,13.50
2018-09-02T05:08:36.134Z,13.50
2018-09-02T05:11:04.611Z,13.60
2018-09-02T05:13:33.110Z,13.60
2018-09-02T05:16:01.549Z,13.70
2018-09-02T05:18:29.998Z,13.70
2018-09-02T05:20:58.486Z,13.80
2018-09-02T05:23:26.939Z,13.80
2018-09-02T05:25:55.392Z,13.90
2018-09-02T05:28:23.873Z,13.90
2018-09-02T05:30:52.411Z,13.90
2018-09-02T05:33:20.871Z,14.00
2018-09-02T05:35:49.410Z,14.00
2018-09-02T05:38:17.844Z,14.10
2018-09-02T05:40:46.276Z,14.10
2018-09-02T05:43:14.750Z,14.20
2018-09-02T05:45:43.202Z,14.20
2018-09-02T05:48:11.718Z,14.30
2018-09-02T05:50:40.223Z,14.30
2018-09-02T05:53:08.670Z,14.30
2018-09-02T05:55:37.113Z,14.30
2018-09-02T05:58:05.655Z,14.40
2018-09-02T06:00:34.090Z,14.40
2018-09-02T06:03:02.534Z,14.50
2018-09-02T06:05:31.114Z,14.50
2018-09-02T06:07:59.567Z,14.60
2018-09-02T06:10:28.038Z,14.60
2018-09-02T06:12:56.554Z,14.60
2018-09-02T06:15:25.013Z,14.60
2018-09-02T06:17:53.482Z,14.60
2018-09-02T06:20:21.991Z,14.60
2018-09-02T06:22:50.452Z,14.70
2018-09-02T06:25:18.942Z,14.70
2018-09-02T06:27:47.489Z,14.80
2018-09-02T06:30:16.025Z,14.80
2018-09-02T06:32:44.540Z,14.80
2018-09-02T06:35:13.074Z,14.90
2018-09-02T06:37:41.535Z,15.00
2018-09-02T06:40:10.042Z,15.00
2018-09-02T06:42:38.555Z,15.10
2018-09-02T06:45:07.078Z,15.20
2018-09-02T06:47:35.559Z,15.30
2018-09-02T06:50:04.087Z,15.40
2018-09-02T06:52:32.578Z,15.50
2018-09-02T06:55:01.459Z,15.60
2018-09-02T06:57:29.966Z,15.70
2018-09-02T06:59:58.438Z,15.80
2018-09-02T07:02:26.909Z,15.90
2018-09-02T07:04:55.426Z,16.00
2018-09-02T07:07:23.882Z,16.10
2018-09-02T07:09:52.443Z,16.20
2018-09-02T07:12:20.961Z,16.30
2018-09-02T07:14:49.399Z,16.40
2018-09-02T07:17:17.850Z,16.50
2018-09-02T07:19:46.354Z,16.50
2018-09-02T07:22:14.831Z,16.60
2018-09-02T07:24:43.323Z,16.70
2018-09-02T07:27:11.823Z,16.70
2018-09-02T07:29:40.296Z,16.70
2018-09-02T07:32:08.761Z,16.80
2018-09-02T07:34:37.281Z,16.90
2018-09-02T07:37:05.756Z,17.00
2018-09-02T07:39:34.219Z,17.10
2018-09-02T07:42:02.742Z,17.20
2018-09-02T07:44:31.228Z,17.30
2018-09-02T07:46:59.744Z,17.40
2018-09-02T07:49:28.231Z,17.50
2018-09-02T07:51:56.690Z,17.60
2018-09-02T07:54:25.145Z,17.70
2018-09-02T07:56:53.724Z,17.80
2018-09-02T07:59:22.205Z,17.80
2018-09-02T08:01:50.710Z,17.90
2018-09-02T08:04:19.215Z,18.00
2018-09-02T08:06:47.670Z,18.10
2018-09-02T08:09:16.120Z,18.10
2018-09-02T08:11:44.589Z,18.20
2018-09-02T08:14:13.030Z,18.30
2018-09-02T08:16:41.495Z,18.40
2018-09-02T08:19:09.987Z,18.60
2018-09-02T08:21:38.435Z,18.60
2018-09-02T08:24:06.906Z,18.80
2018-09-02T08:26:35.444Z,18.90
2018-09-02T08:29:03.933Z,19.00
2018-09-02T08:31:32.478Z,19.10
2018-09-02T08:34:00.983Z,19.20
2018-09-02T08:36:29.418Z,19.30
2018-09-02T08:38:57.984Z,19.40
2018-09-02T08:41:26.384Z,19.50
2018-09-02T08:43:54.818Z,19.60
2018-09-02T08:46:23.247Z,19.60
2018-09-02T08:48:51.718Z,19.60
2018-09-02T08:51:20.150Z,19.70
2018-09-02T08:53:49.954Z,19.80
2018-09-02T08:56:18.586Z,19.90
2018-09-02T08:58:47.066Z,19.90
2018-09-02T09:01:15.814Z,20.00
2018-09-02T09:03:44.308Z,20.10
2018-09-02T09:06:12.850Z,20.30
2018-09-02T09:08:41.345Z,20.30
2018-09-02T09:11:09.949Z,20.40
2018-09-02T09:13:38.491Z,20.50
2018-09-02T09:16:06.926Z,20.50
2018-09-02T09:18:35.438Z,20.60
2018-09-02T09:21:03.942Z,20.70
2018-09-02T09:23:32.398Z,20.80
2018-09-02T09:26:00.926Z,20.80
2018-09-02T09:28:29.397Z,20.90
2018-09-02T09:30:57.842Z,21.00
2018-09-02T09:33:26.342Z,21.10
2018-09-02T09:35:54.802Z,21.30
2018-09-02T09:38:23.238Z,21.40
2018-09-02T09:40:51.710Z,21.50
2018-09-02T09:43:20.156Z,21.60
2018-09-02T09:45:48.659Z,21.60
2018-09-02T09:48:17.110Z,21.50
2018-09-02T09:50:45.533Z,21.50
2018-09-02T09:53:13.953Z,21.50
2018-09-02T09:55:42.558Z,21.50
2018-09-02T09:58:10.978Z,21.50
2018-09-02T10:00:44.722Z,21.60
2018-09-02T10:03:13.194Z,21.70
2018-09-02T10:05:41.662Z,21.80
2018-09-02T10:08:10.266Z,21.90
2018-09-02T10:10:38.770Z,22.00
2018-09-02T10:13:07.290Z,22.00
2018-09-02T10:15:36.387Z,22.10
2018-09-02T10:18:04.933Z,22.10
2018-09-02T10:20:33.578Z,22.00
2018-09-02T10:23:03.014Z,22.10
2018-09-02T10:25:31.569Z,22.20
2018-09-02T10:28:00.327Z,22.20
2018-09-02T10:30:28.876Z,22.30
2018-09-02T10:32:58.066Z,22.30
2018-09-02T10:35:26.571Z,22.30
2018-09-02T10:37:55.095Z,22.30
2018-09-02T10:40:23.624Z,22.30
2018-09-02T10:42:52.117Z,22.40
2018-09-02T10:45:20.681Z,22.40
2018-09-02T10:47:49.182Z,22.40
2018-09-02T10:50:17.775Z,22.40
2018-09-02T10:52:46.266Z,22.40
2018-09-02T10:55:14.774Z,22.40
2018-09-02T10:57:43.294Z,22.40
2018-09-02T11:00:11.846Z,22.40
2018-09-02T11:02:40.650Z,22.40
2018-09-02T11:05:09.498Z,22.40
2018-09-02T11:07:38.079Z,22.50
2018-09-02T11:10:06.802Z,22.60
2018-09-02T11:12:35.275Z,22.60
2018-09-02T11:15:03.850Z,22.60
2018-09-02T11:17:32.307Z,22.60
2018-09-02T11:20:00.758Z,22.70
2018-09-02T11:22:29.272Z,22.80
2018-09-02T11:24:57.734Z,23.00
2018-09-02T11:27:26.228Z,23.10
2018-09-02T11:29:54.762Z,23.20
2018-09-02T11:32:23.213Z,23.30
2018-09-02T11:34:51.693Z,23.30
2018-09-02T11:37:20.298Z,23.30
2018-09-02T11:39:48.805Z,23.40
2018-09-02T11:42:17.290Z,23.40
2018-09-02T11:44:45.804Z,23.40
2018-09-02T11:47:14.275Z,23.40
2018-09-02T11:49:42.783Z,23.40
2018-09-02T11:52:11.390Z,23.30
2018-09-02T11:54:39.855Z,23.40
2018-09-02T11:57:08.322Z,23.40
2018-09-02T11:59:36.801Z,23.50
2018-09-02T12:02:05.459Z,23.60
2018-09-02T12:04:33.910Z,23.80
2018-09-02T12:07:02.431Z,24.00
2018-09-02T12:09:30.874Z,24.20
2018-09-02T12:11:59.327Z,24.30
2018-09-02T12:14:27.811Z,24.20
2018-09-02T12:16:56.258Z,24.20
2018-09-02T12:19:24.705Z,24.10
2018-09-02T12:21:53.254Z,24.20
2018-09-02T12:24:21.722Z,24.10
2018-09-02T12:26:50.235Z,24.00
2018-09-02T12:29:19.749Z,23.80
2018-09-02T12:31:48.182Z,23.70
2018-09-02T12:34:16.665Z,23.70
2018-09-02T12:36:45.178Z,23.60
2018-09-02T12:39:13.642Z,23.70
2018-09-02T12:41:42.075Z,23.70
2018-09-02T12:44:10.579Z,23.70
2018-09-02T12:46:39.030Z,23.60
2018-09-02T12:49:07.486Z,23.50
2018-09-02T12:51:36.012Z,23.40
2018-09-02T12:54:04.471Z,23.30
2018-09-02T12:56:34.183Z,23.30
2018-09-02T12:59:02.730Z,23.30
2018-09-02T13:01:31.182Z,23.30
2018-09-02T13:03:59.651Z,23.30
2018-09-02T13:06:28.182Z,23.30
2018-09-02T13:08:56.666Z,23.30
2018-09-02T13:11:25.134Z,23.30
2018-09-02T13:13:53.635Z,23.40
2018-09-02T13:16:22.118Z,23.40
2018-09-02T13:18:50.691Z,23.60
2018-09-02T13:21:19.214Z,23.70
2018-09-02T13:23:47.711Z,23.90
2018-09-02T13:26:16.213Z,24.00
2018-09-02T13:28:44.642Z,24.10
2018-09-02T13:31:13.078Z,24.20
2018-09-02T13:33:41.714Z,24.20
2018-09-02T13:36:10.176Z,24.30
2018-09-02T13:38:38.635Z,24.30
2018-09-02T13:41:07.254Z,24.20
2018-09-02T13:43:35.721Z,24.10
2018-09-02T13:46:04.203Z,24.00
2018-09-02T13:48:32.835Z,24.00
2018-09-02T13:51:01.255Z,24.00
2018-09-02T13:53:29.686Z,24.00
2018-09-02T13:55:58.159Z,24.00
2018-09-02T13:58:26.604Z,23.90
2018-09-02T14:00:55.082Z,23.80
2018-09-02T14:03:23.582Z,23.70
2018-09-02T14:05:52.177Z,23.60
2018-09-02T14:08:20.715Z,23.50
2018-09-02T14:10:49.206Z,23.40
2018-09-02T14:13:17.662Z,23.20
2018-09-02T14:15:46.362Z,23.00
2018-09-02T14:18:14.898Z,22.90
2018-09-02T14:20:43.334Z,22.90
2018-09-02T14:23:11.838Z,22.80
2018-09-02T14:25:40.383Z,22.70
2018-09-02T14:28:08.846Z,22.50
2018-09-02T14:30:37.295Z,22.40
2018-09-02T14:33:05.841Z,22.40
2018-09-02T14:35:34.271Z,22.40
2018-09-02T14:38:02.739Z,22.40
2018-09-02T14:40:31.214Z,22.60
2018-09-02T14:42:59.655Z,22.70
2018-09-02T14:45:28.078Z,22.70
2018-09-02T14:47:56.603Z,22.60
2018-09-02T14:50:25.038Z,22.50
2018-09-02T14:52:53.469Z,22.40
2018-09-02T14:55:21.939Z,22.30
2018-09-02T14:57:50.511Z,22.30
2018-09-02T15:00:18.974Z,22.30
2018-09-02T15:02:47.499Z,22.30
2018-09-02T15:05:15.979Z,22.40
2018-09-02T15:07:44.431Z,22.50
2018-09-02T15:10:12.954Z,22.50
2018-09-02T15:12:41.414Z,22.50
2018-09-02T15:15:09.902Z,22.40
2018-09-02T15:17:38.488Z,22.40
2018-09-02T15:20:06.959Z,22.40
2018-09-02T15:22:35.510Z,22.40
2018-09-02T15:25:04.062Z,22.40
2018-09-02T15:27:32.582Z,22.40
2018-09-02T15:30:01.037Z,22.30
2018-09-02T15:32:29.570Z,22.40
2018-09-02T15:34:58.027Z,22.40
2018-09-02T15:37:26.507Z,22.30
2018-09-02T15:39:55.078Z,22.30
2018-09-02T15:42:23.546Z,22.20
2018-09-02T15:44:52.050Z,22.20
2018-09-02T15:47:20.554Z,22.10
2018-09-02T15:49:51.678Z,22.10
2018-09-02T15:52:20.139Z,21.90
2018-09-02T15:54:48.710Z,21.80
2018-09-02T15:57:17.254Z,21.80
2018-09-02T15:59:45.728Z,21.70
2018-09-02T16:02:14.260Z,21.70
2018-09-02T16:04:42.814Z,21.70
2018-09-02T16:07:11.414Z,21.60
2018-09-02T16:09:40.162Z,21.50
2018-09-02T16:12:08.830Z,21.50
2018-09-02T16:14:37.294Z,21.40
2018-09-02T16:17:05.858Z,21.30
2018-09-02T16:19:34.346Z,21.30
2018-09-02T16:22:02.834Z,21.20
2018-09-02T16:24:31.370Z,21.20
2018-09-02T16:26:59.878Z,21.20
2018-09-02T16:29:28.575Z,21.20
2018-09-02T16:31:57.095Z,21.10
2018-09-02T16:34:25.540Z,21.10
2018-09-02T16:36:53.990Z,21.00
2018-09-02T16:39:22.470Z,21.00
2018-09-02T16:41:50.933Z,20.90
2018-09-02T16:44:19.394Z,20.90
2018-09-02T16:46:47.922Z,20.70
2018-09-02T16:49:16.395Z,20.70
2018-09-02T16:51:44.854Z,20.60
2018-09-02T16:55:42.763Z,20.50
2018-09-02T16:58:11.223Z,20.40
2018-09-02T17:00:39.739Z,20.30
2018-09-02T17:03:08.246Z,20.20
2018-09-02T17:05:36.674Z,20.10
2018-09-02T17:08:05.150Z,20.10
2018-09-02T17:10:33.646Z,20.00
2018-09-02T17:13:02.155Z,19.90
2018-09-02T17:15:30.659Z,19.90
2018-09-02T17:19:31.094Z,19.80
2018-09-02T17:21:59.578Z,19.80
2018-09-02T17:24:28.042Z,19.70
2018-09-02T17:26:57.158Z,19.70
2018-09-02T17:29:25.594Z,19.60
2018-09-02T17:31:54.085Z,19.50
2018-09-02T17:34:22.664Z,19.50
2018-09-02T17:36:51.107Z,19.40
2018-09-02T17:39:19.535Z,19.30
2018-09-02T17:41:48.010Z,19.20
2018-09-02T17:44:16.442Z,19.20
2018-09-02T17:46:44.877Z,19.00
2018-09-02T17:49:13.425Z,18.90
2018-09-02T17:51:41.858Z,18.90
2018-09-02T17:54:10.413Z,18.70
2018-09-02T17:56:40.072Z,18.60
2018-09-02T17:59:08.504Z,18.50
2018-09-02T18:01:37.031Z,18.40
2018-09-02T18:04:05.546Z,18.30
2018-09-02T18:06:33.978Z,18.20
2018-09-02T18:09:02.479Z,18.20
2018-09-02T18:11:30.992Z,18.10
2018-09-02T18:13:59.435Z,18.00
2018-09-02T18:16:28.025Z,17.90
2018-09-02T18:18:56.580Z,17.80
2018-09-02T18:21:25.079Z,17.70
2018-09-02T18:23:53.633Z,17.70
2018-09-02T18:26:22.174Z,17.60
2018-09-02T18:28:51.206Z,17.50
2018-09-02T18:31:19.687Z,17.40
2018-09-02T18:33:48.254Z,17.40
2018-09-02T18:36:16.773Z,17.30
2018-09-02T18:38:45.297Z,17.30
2018-09-02T18:41:13.848Z,17.20
2018-09-02T18:43:42.331Z,17.10
2018-09-02T18:46:10.956Z,17.10
2018-09-02T18:48:39.458Z,17.00
2018-09-02T18:51:08.007Z,17.00
2018-09-02T18:53:36.511Z,16.90
2018-09-02T18:56:05.132Z,16.80
2018-09-02T18:58:33.670Z,16.80
2018-09-02T19:01:02.196Z,16.80
2018-09-02T19:03:30.766Z,16.70
2018-09-02T19:05:59.219Z,16.70
2018-09-02T19:08:27.653Z,16.60
2018-09-02T19:10:56.147Z,16.60
2018-09-02T19:13:24.583Z,16.50
2018-09-02T19:15:53.038Z,16.50
2018-09-02T19:18:21.562Z,16.50
2018-09-02T19:20:49.990Z,16.40
2018-09-02T19:23:18.427Z,16.40
2018-09-02T19:25:46.886Z,16.30
2018-09-02T19:28:15.571Z,16.20
2018-09-02T19:30:44.014Z,16.20
2018-09-02T19:33:12.536Z,16.20
2018-09-02T19:35:40.982Z,16.10
2018-09-02T19:38:09.416Z,16.10
2018-09-02T19:40:38.071Z,16.00
2018-09-02T19:43:06.558Z,16.00
2018-09-02T19:45:35.002Z,15.90
2018-09-02T19:48:03.564Z,15.90
2018-09-02T19:50:31.998Z,15.90
2018-09-02T19:53:00.552Z,15.80
2018-09-02T19:55:29.023Z,15.80
2018-09-02T19:57:57.639Z,15.80
2018-09-02T20:00:26.025Z,15.70
2018-09-02T20:02:54.541Z,15.70
2018-09-02T20:05:22.979Z,15.60
2018-09-02T20:07:51.463Z,15.60
2018-09-02T20:10:20.248Z,15.60
2018-09-02T20:12:48.692Z,15.60
2018-09-02T20:15:17.150Z,15.50
2018-09-02T20:17:45.614Z,15.50
2018-09-02T20:20:14.888Z,15.40
2018-09-02T20:22:43.320Z,15.40
2018-09-02T20:25:11.856Z,15.40
2018-09-02T20:27:40.290Z,15.40
2018-09-02T20:30:08.767Z,15.40
2018-09-02T20:32:37.371Z,15.40
2018-09-02T20:35:05.854Z,15.40
2018-09-02T20:37:34.266Z,15.30
2018-09-02T20:40:02.761Z,15.30
2018-09-02T20:42:31.238Z,15.30
2018-09-02T20:44:59.679Z,15.30
2018-09-02T20:47:28.218Z,15.20
2018-09-02T20:49:56.655Z,15.20
2018-09-02T20:52:25.086Z,15.20
2018-09-02T20:54:53.591Z,15.20
2018-09-02T20:57:22.695Z,15.20
2018-09-02T20:59:51.137Z,15.20
2018-09-02T21:02:19.677Z,15.10
2018-09-02T21:04:48.218Z,15.10
2018-09-02T21:07:16.692Z,15.10
2018-09-02T21:09:45.210Z,15.10
2018-09-02T21:12:13.685Z,15.20
2018-09-02T21:14:42.179Z,15.10
2018-09-02T21:17:10.748Z,15.10
2018-09-02T21:19:39.210Z,15.10
2018-09-02T21:22:08.710Z,15.10
2018-09-02T21:24:37.402Z,15.00
2018-09-02T21:27:05.907Z,15.00
2018-09-02T21:29:34.346Z,14.90
2018-09-02T21:32:02.818Z,15.00
2018-09-02T21:34:31.259Z,14.90
2018-09-02T21:36:59.771Z,14.90
2018-09-02T21:39:28.205Z,14.90
2018-09-02T21:41:56.610Z,14.80
2018-09-02T21:44:25.073Z,14.80
2018-09-02T21:46:53.541Z,14.80
2018-09-02T21:49:21.961Z,14.70
2018-09-02T21:51:50.390Z,14.70
2018-09-02T21:54:18.856Z,14.70
2018-09-02T21:56:47.286Z,14.70
2018-09-02T21:59:15.727Z,14.60
2018-09-02T22:01:44.186Z,14.60
2018-09-02T22:04:12.645Z,14.60
2018-09-02T22:06:41.091Z,14.50
2018-09-02T22:09:11.586Z,14.50
2018-09-02T22:11:40.020Z,14.50
2018-09-02T22:14:08.531Z,14.50
2018-09-02T22:16:37.074Z,14.50
2018-09-02T22:19:05.712Z,14.50
2018-09-02T22:21:34.162Z,14.40
2018-09-02T22:24:02.722Z,14.50
2018-09-02T22:26:31.891Z,14.40
2018-09-02T22:29:00.458Z,14.40
2018-09-02T22:31:28.930Z,14.30
2018-09-02T22:33:57.374Z,14.30
2018-09-02T22:36:25.815Z,14.30
2018-09-02T22:38:54.354Z,14.30
2018-09-02T22:41:22.841Z,14.20
2018-09-02T22:43:51.324Z,14.20
2018-09-02T22:46:19.782Z,14.20
2018-09-02T22:48:48.210Z,14.10
2018-09-02T22:51:16.659Z,14.10
2018-09-02T22:53:45.150Z,14.00
2018-09-02T22:56:13.648Z,14.00
2018-09-02T22:58:42.175Z,14.00
2018-09-02T23:01:10.715Z,13.90
2018-09-02T23:03:39.174Z,13.90
2018-09-02T23:06:07.622Z,13.90
2018-09-02T23:08:36.124Z,13.90
2018-09-02T23:11:05.241Z,13.90
2018-09-02T23:13:33.719Z,13.90
2018-09-02T23:16:02.275Z,13.80
2018-09-02T23:18:30.740Z,13.80
2018-09-02T23:20:59.246Z,13.80
2018-09-02T23:23:27.826Z,13.80
2018-09-02T23:25:56.335Z,13.80
2018-09-02T23:28:24.830Z,13.80
2018-09-02T23:30:53.325Z,13.80
2018-09-02T23:33:21.941Z,13.70
2018-09-02T23:35:50.486Z,13.70
2018-09-02T23:38:19.212Z,13.80
2018-09-02T23:40:47.672Z,13.70
2018-09-02T23:43:16.315Z,13.80
2018-09-02T23:45:44.854Z,13.70
2018-09-02T23:48:13.318Z,13.80
2018-09-02T23:50:42.007Z,13.80
2018-09-02T23:53:10.639Z,13.80
2018-09-02T23:55:39.104Z,13.80
2018-09-02T23:58:07.937Z,13.80
